Time;durP1;ratioP1;P1;durP2;ratioP2;P2;SDS_P1;SDS_P2;PMS_P1;PMS_P2;Temp;Humidity;BMP_temperature;BMP_pressure;BME280_temperature;BME280_humidity;BME280_pressure;Samples;Min_cycle;Max_cycle;Signal;HPM_P1;HPM_P2
2022/04/12 00:00:55;;;;;;;10.40;1.85;;;7.10;99.90;;;;;;4996170;28;20051;-69
2022/04/12 00:03:21;;;;;;;7.47;1.52;;;7.10;99.90;;;;;;4995628;28;20608;-69
2022/04/12 00:05:47;;;;;;;5.25;1.88;;;7.10;99.90;;;;;;4996793;28;20349;-69
2022/04/12 00:08:13;;;;;;;3.65;1.65;;;7.10;99.90;;;;;;4996605;28;20051;-69
2022/04/12 00:10:39;;;;;;;3.20;1.60;;;7.20;99.90;;;;;;4995572;28;20054;-69
2022/04/12 00:13:05;;;;;;;5.10;1.75;;;7.10;99.90;;;;;;4996646;28;20133;-69
2022/04/12 00:15:31;;;;;;;2.50;1.70;;;7.10;99.90;;;;;;4995386;28;20046;-69
2022/04/12 00:20:42;;;;;;;3.72;1.70;;;7.00;99.90;;;;;;4996192;28;20490;-68
2022/04/12 00:23:08;;;;;;;4.38;1.70;;;7.00;99.90;;;;;;4995161;28;20145;-69
2022/04/12 00:25:34;;;;;;;5.30;1.92;;;7.00;99.90;;;;;;4996388;28;20129;-69
2022/04/12 00:28:00;;;;;;;5.45;2.20;;;7.00;99.90;;;;;;4996735;28;20477;-69
2022/04/12 00:30:27;;;;;;;4.32;1.90;;;7.00;99.90;;;;;;4979431;28;20050;-69
2022/04/12 00:32:53;;;;;;;3.80;1.88;;;7.00;99.90;;;;;;4996148;28;20533;-69
2022/04/12 00:35:21;;;;;;;4.25;1.92;;;6.90;99.90;;;;;;4996229;28;20047;-69
2022/04/12 00:37:48;;;;;;;3.65;2.13;;;6.90;99.90;;;;;;4996421;28;20050;-69
2022/04/12 00:40:16;;;;;;;3.65;2.20;;;7.10;99.90;;;;;;4996095;28;20065;-69
2022/04/12 00:42:42;;;;;;;5.50;2.20;;;6.90;99.90;;;;;;4995420;28;20055;-69
2022/04/12 00:45:08;;;;;;;4.88;2.25;;;6.80;99.90;;;;;;4995952;28;20050;-69
2022/04/12 00:47:33;;;;;;;3.78;1.77;;;6.90;99.90;;;;;;4996116;28;20039;-69
2022/04/12 00:49:59;;;;;;;4.68;2.00;;;6.80;99.90;;;;;;4995851;28;20057;-69
2022/04/12 00:52:27;;;;;;;3.33;1.92;;;6.80;99.90;;;;;;4995916;28;20050;-69
2022/04/12 00:54:53;;;;;;;3.22;1.90;;;6.80;99.90;;;;;;4995824;28;20054;-69
2022/04/12 00:57:19;;;;;;;4.03;2.15;;;6.80;99.90;;;;;;4995804;28;20096;-69
2022/04/12 00:59:46;;;;;;;3.28;2.00;;;6.80;99.90;;;;;;4995664;28;20117;-69
2022/04/12 01:02:12;;;;;;;4.38;1.98;;;6.80;99.90;;;;;;4994839;28;20233;-69
2022/04/12 01:04:37;;;;;;;3.70;1.90;;;6.80;99.90;;;;;;4995666;28;20598;-69
2022/04/12 01:07:04;;;;;;;4.15;2.00;;;6.70;99.90;;;;;;4995534;28;20038;-69
2022/04/12 01:09:30;;;;;;;4.68;2.08;;;6.80;99.90;;;;;;4994218;28;20057;-70
2022/04/12 01:11:57;;;;;;;4.95;2.10;;;6.80;99.90;;;;;;4995503;28;20046;-69
2022/04/12 01:14:24;;;;;;;5.95;2.20;;;6.90;99.90;;;;;;4995896;28;20046;-69
2022/04/12 01:16:51;;;;;;;5.07;2.15;;;6.80;99.90;;;;;;4994163;28;20554;-69
2022/04/12 01:19:18;;;;;;;6.78;2.65;;;6.80;99.90;;;;;;4994013;28;20050;-69
2022/04/12 01:21:55;;;;;;;2.55;1.90;;;6.80;99.90;;;;;;4995126;28;20120;-69
2022/04/12 01:24:21;;;;;;;5.38;2.63;;;6.80;99.90;;;;;;4995425;28;20101;-71
2022/04/12 01:26:47;;;;;;;5.75;2.55;;;6.80;99.90;;;;;;4993984;28;20391;-70
2022/04/12 01:29:13;;;;;;;4.65;2.30;;;7.00;99.90;;;;;;4994294;28;20082;-69
2022/04/12 01:31:39;;;;;;;3.88;2.30;;;7.00;99.90;;;;;;4994564;28;20050;-70
2022/04/12 01:34:04;;;;;;;3.03;2.03;;;6.80;99.90;;;;;;4994935;28;20379;-71
2022/04/12 01:36:30;;;;;;;5.45;2.67;;;6.80;99.90;;;;;;4977836;28;20042;-69
2022/04/12 01:38:56;;;;;;;4.28;2.50;;;6.70;99.90;;;;;;4995043;28;20042;-69
2022/04/12 01:41:22;;;;;;;3.97;2.22;;;6.70;99.90;;;;;;4994994;28;20084;-69
2022/04/12 01:43:48;;;;;;;4.18;2.42;;;6.70;99.90;;;;;;4995190;28;20046;-69
2022/04/12 01:46:14;;;;;;;4.78;2.22;;;6.80;99.90;;;;;;4993364;28;20371;-69
2022/04/12 01:48:40;;;;;;;7.85;2.47;;;6.70;99.90;;;;;;4977478;28;20053;-69
2022/04/12 01:51:05;;;;;;;3.63;2.45;;;6.70;99.90;;;;;;4994820;28;20050;-70
2022/04/12 01:53:31;;;;;;;6.30;2.50;;;6.70;99.90;;;;;;4995032;28;20046;-69
2022/04/12 01:55:57;;;;;;;4.40;2.53;;;6.70;99.90;;;;;;4994754;28;20046;-69
2022/04/12 01:58:22;;;;;;;5.70;2.90;;;6.80;99.90;;;;;;4995806;28;20042;-69
2022/04/12 02:00:48;;;;;;;4.50;2.45;;;7.10;99.90;;;;;;4993665;28;20386;-69
2022/04/12 02:03:14;;;;;;;5.07;2.58;;;6.70;99.90;;;;;;4994752;28;20052;-70
2022/04/12 02:05:40;;;;;;;4.50;2.60;;;6.70;99.90;;;;;;4993785;28;20058;-69
2022/04/12 02:08:07;;;;;;;4.88;2.90;;;6.70;99.90;;;;;;4994522;28;20470;-69
2022/04/12 02:10:33;;;;;;;4.43;2.28;;;6.70;99.90;;;;;;4994496;28;20076;-69
2022/04/12 02:12:58;;;;;;;4.90;3.10;;;6.70;99.90;;;;;;4994606;28;20049;-69
2022/04/12 02:15:24;;;;;;;4.55;2.65;;;6.70;99.90;;;;;;4994457;28;20054;-69
2022/04/12 02:17:50;;;;;;;4.78;2.75;;;6.70;99.90;;;;;;4994473;28;20078;-68
2022/04/12 02:20:15;;;;;;;5.03;2.80;;;6.60;99.90;;;;;;4993082;28;20129;-69
2022/04/12 02:22:41;;;;;;;4.80;2.88;;;6.60;99.90;;;;;;4994284;28;20059;-69
2022/04/12 02:25:07;;;;;;;5.35;3.30;;;6.60;99.90;;;;;;4995144;28;20050;-69
2022/04/12 02:27:33;;;;;;;4.22;2.83;;;6.70;99.90;;;;;;4993129;28;20047;-69
2022/04/12 02:29:59;;;;;;;4.55;2.90;;;6.60;99.90;;;;;;4994239;28;20046;-69
2022/04/12 02:32:24;;;;;;;5.43;2.95;;;6.70;99.90;;;;;;4994505;28;20046;-69
2022/04/12 02:34:50;;;;;;;4.97;3.03;;;6.60;99.90;;;;;;4994214;28;20049;-69
2022/04/12 02:37:16;;;;;;;7.45;3.40;;;6.60;99.90;;;;;;4994130;28;20046;-69
2022/04/12 02:39:41;;;;;;;8.30;3.50;;;6.60;99.90;;;;;;4994931;28;20133;-70
2022/04/12 02:42:07;;;;;;;5.60;3.72;;;6.60;99.90;;;;;;4992983;28;20508;-69
2022/04/12 02:44:33;;;;;;;6.38;3.58;;;6.60;99.90;;;;;;4993747;28;20050;-69
2022/04/12 02:46:59;;;;;;;6.93;3.30;;;6.60;99.90;;;;;;4993499;28;20125;-69
2022/04/12 02:49:24;;;;;;;8.60;3.75;;;6.60;99.90;;;;;;4993925;28;20474;-69
2022/04/12 02:51:51;;;;;;;7.05;4.15;;;6.60;99.90;;;;;;4992800;28;20166;-69
2022/04/12 02:54:17;;;;;;;5.03;3.53;;;6.60;99.90;;;;;;4994453;28;20050;-69
2022/04/12 02:56:43;;;;;;;7.05;3.47;;;6.60;99.90;;;;;;4994792;28;20046;-69
2022/04/12 02:59:09;;;;;;;9.88;4.10;;;6.60;99.90;;;;;;4998210;28;20129;-69
2022/04/12 03:01:35;;;;;;;5.97;4.18;;;6.50;99.90;;;;;;4996816;28;20101;-69
2022/04/12 03:04:01;;;;;;;8.23;4.20;;;6.70;99.90;;;;;;4996339;28;20502;-69
2022/04/12 03:06:26;;;;;;;6.15;3.40;;;6.60;99.90;;;;;;4998053;28;20084;-69
2022/04/12 03:08:52;;;;;;;5.68;4.30;;;6.50;99.90;;;;;;4997789;28;20049;-69
2022/04/12 03:11:18;;;;;;;7.35;4.10;;;6.50;99.90;;;;;;4996528;28;20141;-69
2022/04/12 03:13:44;;;;;;;7.40;4.53;;;6.50;99.90;;;;;;4996588;28;20042;-70
2022/04/12 03:16:09;;;;;;;3.88;3.38;;;6.50;99.90;;;;;;4997582;28;20053;-69
2022/04/12 03:18:35;;;;;;;8.05;3.90;;;6.60;99.90;;;;;;4997829;28;20042;-70
2022/04/12 03:21:01;;;;;;;6.88;3.80;;;6.50;99.90;;;;;;4998074;28;20046;-70
2022/04/12 03:23:27;;;;;;;5.68;4.05;;;6.50;99.90;;;;;;4997198;28;20112;-69
2022/04/12 03:25:52;;;;;;;7.68;4.50;;;6.50;99.90;;;;;;4996834;28;20059;-69
2022/04/12 03:28:18;;;;;;;7.97;4.38;;;6.50;99.90;;;;;;4997495;28;20046;-69
2022/04/12 03:30:44;;;;;;;7.30;4.70;;;6.50;99.90;;;;;;4997452;28;20130;-69
2022/04/12 03:33:10;;;;;;;6.53;4.07;;;6.50;99.90;;;;;;4997197;28;20046;-69
2022/04/12 03:35:35;;;;;;;6.85;4.18;;;6.50;99.90;;;;;;4997309;28;20077;-69
2022/04/12 03:38:01;;;;;;;6.07;4.22;;;6.50;99.90;;;;;;4997807;28;20517;-69
2022/04/12 03:40:31;;;;;;;6.22;4.03;;;6.50;99.90;;;;;;4980036;28;20099;-69
2022/04/12 03:43:04;;;;;;;5.97;4.60;;;6.50;99.90;;;;;;5000492;28;20046;-69
2022/04/12 03:45:31;;;;;;;7.93;3.83;;;6.50;99.90;;;;;;4999391;28;20050;-69
2022/04/12 03:47:57;;;;;;;8.25;4.80;;;6.50;99.90;;;;;;4997288;28;20433;-70
2022/04/12 03:50:23;;;;;;;7.50;4.60;;;6.50;99.90;;;;;;4997756;28;20046;-70
2022/04/12 03:52:52;;;;;;;8.60;4.63;;;6.50;99.90;;;;;;4997194;28;20482;-70
2022/04/12 03:55:30;;;;;;;8.63;4.70;;;6.40;99.90;;;;;;4996970;28;20050;-70
2022/04/12 03:58:04;;;;;;;7.72;4.55;;;6.50;99.90;;;;;;4997318;28;20046;-70
2022/04/12 04:00:31;;;;;;;8.38;5.10;;;6.40;99.90;;;;;;4996924;28;20096;-69
2022/04/12 04:02:57;;;;;;;6.78;4.07;;;6.40;99.90;;;;;;4996767;28;20057;-69
2022/04/12 04:05:23;;;;;;;7.22;4.78;;;6.40;99.90;;;;;;4996839;28;20047;-69
2022/04/12 04:07:49;;;;;;;7.30;5.35;;;6.40;99.90;;;;;;4995947;28;20478;-69
2022/04/12 04:10:15;;;;;;;6.55;4.65;;;6.50;99.90;;;;;;4996629;28;20054;-69
2022/04/12 04:12:42;;;;;;;7.10;5.05;;;6.20;99.90;;;;;;4995654;28;20049;-69
2022/04/12 04:15:14;;;;;;;7.47;4.70;;;6.30;99.90;;;;;;4996474;28;20052;-69
2022/04/12 04:17:45;;;;;;;7.93;4.68;;;6.30;99.90;;;;;;4996663;28;20049;-69
2022/04/12 04:20:12;;;;;;;6.93;4.75;;;6.30;99.90;;;;;;4979239;28;20046;-69
2022/04/12 04:22:40;;;;;;;7.15;4.45;;;6.30;99.90;;;;;;4996365;28;20058;-69
2022/04/12 04:25:13;;;;;;;7.47;4.55;;;6.30;99.90;;;;;;4996956;28;20061;-69
2022/04/12 04:27:41;;;;;;;;;;;6.30;99.90;;;;;;4996794;28;20042;-69
2022/04/12 04:30:08;;;;;;;7.03;5.15;;;6.30;99.90;;;;;;4995891;28;20277;-69
2022/04/12 04:32:38;;;;;;;8.68;4.60;;;6.30;99.90;;;;;;4996311;28;20500;-69
2022/04/12 04:35:04;;;;;;;5.90;4.15;;;6.70;99.90;;;;;;4996229;28;20053;-70
2022/04/12 04:37:30;;;;;;;7.90;4.78;;;6.20;99.90;;;;;;4996312;28;20057;-69
2022/04/12 04:39:56;;;;;;;8.45;4.75;;;6.20;99.90;;;;;;4996482;28;20046;-69
2022/04/12 04:42:23;;;;;;;8.10;4.70;;;6.20;99.90;;;;;;4996234;28;20046;-69
2022/04/12 04:44:49;;;;;;;6.35;4.30;;;6.20;99.90;;;;;;4996394;28;20043;-69
2022/04/12 04:47:15;;;;;;;8.40;4.57;;;6.20;99.90;;;;;;4996243;28;20101;-69
2022/04/12 04:49:41;;;;;;;6.65;4.20;;;6.20;99.90;;;;;;4996025;28;20568;-70
2022/04/12 04:52:06;;;;;;;8.13;4.75;;;6.20;99.90;;;;;;4995954;28;20478;-69
2022/04/12 04:54:33;;;;;;;7.55;4.93;;;6.20;99.90;;;;;;4994854;28;20046;-70
2022/04/12 04:56:59;;;;;;;7.43;4.72;;;6.10;99.90;;;;;;4994840;28;20155;-69
2022/04/12 04:59:24;;;;;;;8.38;4.53;;;6.10;99.90;;;;;;4995612;28;20466;-69
2022/04/12 05:01:50;;;;;;;8.45;5.00;;;6.10;99.90;;;;;;4995897;28;20050;-68
2022/04/12 05:04:16;;;;;;;6.00;4.45;;;6.10;99.90;;;;;;4994738;28;20046;-69
2022/04/12 05:06:41;;;;;;;7.07;4.75;;;6.10;99.90;;;;;;4995893;28;20050;-69
2022/04/12 05:09:07;;;;;;;7.85;4.70;;;6.10;99.90;;;;;;4978482;28;20136;-69
2022/04/12 05:11:33;;;;;;;7.20;4.88;;;6.10;99.90;;;;;;4995875;28;20359;-69
2022/04/12 05:13:59;;;;;;;8.20;5.53;;;6.10;99.90;;;;;;4995788;28;20540;-69
2022/04/12 05:16:24;;;;;;;9.25;4.65;;;6.10;99.90;;;;;;4995575;28;20134;-69
2022/04/12 05:18:51;;;;;;;9.65;4.90;;;6.10;99.90;;;;;;4994243;28;20068;-69
2022/04/12 05:21:18;;;;;;;7.47;4.45;;;6.30;99.90;;;;;;4995070;28;20042;-69
2022/04/12 05:23:44;;;;;;;7.40;4.78;;;6.10;99.90;;;;;;4995044;28;20115;-69
2022/04/12 05:26:10;;;;;;;8.13;4.35;;;6.10;99.90;;;;;;4994927;28;20049;-69
2022/04/12 05:28:36;;;;;;;8.52;4.85;;;6.10;99.90;;;;;;4995181;28;20052;-69
2022/04/12 05:31:02;;;;;;;6.47;4.57;;;6.10;99.90;;;;;;4995112;28;20137;-69
2022/04/12 05:33:28;;;;;;;7.70;4.35;;;6.10;99.90;;;;;;4994210;28;20050;-69
2022/04/12 05:35:53;;;;;;;7.80;4.55;;;6.10;99.90;;;;;;4995069;28;20053;-68
2022/04/12 05:38:19;;;;;;;8.70;5.22;;;6.10;99.90;;;;;;4994998;28;20046;-69
2022/04/12 05:40:45;;;;;;;5.97;4.22;;;6.50;99.90;;;;;;4995565;28;20421;-70
2022/04/12 05:43:11;;;;;;;6.63;4.40;;;6.60;99.90;;;;;;4994949;28;20049;-69
2022/04/12 05:45:37;;;;;;;7.32;4.57;;;6.10;99.90;;;;;;4995624;28;20060;-69
2022/04/12 05:48:03;;;;;;;7.78;4.90;;;6.10;99.90;;;;;;4993504;28;20474;-69
2022/04/12 05:50:29;;;;;;;7.85;4.70;;;6.10;99.90;;;;;;4994739;28;20438;-70
2022/04/12 05:52:55;;;;;;;6.75;4.32;;;6.10;99.90;;;;;;4993661;28;20038;-69
2022/04/12 05:55:24;;;;;;;9.00;4.70;;;6.10;99.90;;;;;;4993533;28;20051;-69
2022/04/12 05:57:59;;;;;;;7.90;4.82;;;6.10;99.90;;;;;;4994796;28;20042;-68
2022/04/12 06:00:30;;;;;;;7.13;5.00;;;6.20;99.90;;;;;;4994003;28;20054;-70
2022/04/12 06:02:56;;;;;;;7.15;4.80;;;6.20;99.90;;;;;;4993616;28;20046;-69
2022/04/12 06:05:23;;;;;;;8.23;4.70;;;6.30;99.90;;;;;;4993656;28;20394;-69
2022/04/12 06:07:50;;;;;;;11.68;4.72;;;6.30;99.90;;;;;;4993285;28;20057;-69
2022/04/12 06:10:18;;;;;;;8.20;4.53;;;6.40;99.90;;;;;;4994587;28;20046;-69
2022/04/12 06:12:45;;;;;;;9.57;5.10;;;6.30;99.90;;;;;;4993294;28;20089;-69
2022/04/12 06:15:11;;;;;;;9.60;5.00;;;6.60;99.90;;;;;;4994416;28;20149;-69
2022/04/12 06:17:38;;;;;;;8.30;5.28;;;6.70;99.90;;;;;;4993097;28;20129;-69
2022/04/12 06:20:06;;;;;;;8.02;5.25;;;6.80;99.90;;;;;;4994386;28;20093;-69
2022/04/12 06:22:33;;;;;;;7.22;5.07;;;6.90;99.90;;;;;;4992766;28;20189;-69
2022/04/12 06:24:59;;;;;;;9.98;5.35;;;7.10;99.90;;;;;;4994281;28;20478;-69
2022/04/12 06:27:33;;;;;;;8.30;5.13;;;7.00;99.90;;;;;;4994269;28;20428;-69
2022/04/12 06:30:10;;;;;;;6.75;4.65;;;7.10;99.90;;;;;;4994288;28;20052;-68
2022/04/12 06:32:36;;;;;;;9.38;6.00;;;7.20;99.90;;;;;;4993057;28;20066;-69
2022/04/12 06:35:03;;;;;;;8.63;4.72;;;7.20;99.90;;;;;;4994245;28;20074;-69
2022/04/12 06:37:29;;;;;;;7.30;4.65;;;7.20;99.90;;;;;;4993728;28;20050;-69
2022/04/12 06:39:57;;;;;;;7.47;5.53;;;7.30;99.90;;;;;;4994058;28;20092;-69
2022/04/12 06:42:22;;;;;;;6.97;4.78;;;7.30;99.90;;;;;;4992962;28;20061;-68
2022/04/12 06:44:48;;;;;;;7.93;5.18;;;7.40;99.90;;;;;;4994104;28;20410;-68
2022/04/12 06:47:17;;;;;;;7.95;5.35;;;7.40;99.90;;;;;;4994465;28;20489;-68
2022/04/12 06:49:47;;;;;;;10.02;5.85;;;7.40;99.90;;;;;;4994666;28;20119;-68
2022/04/12 06:52:15;;;;;;;6.88;5.03;;;7.50;99.90;;;;;;4992992;28;20058;-68
2022/04/12 06:54:41;;;;;;;8.05;5.28;;;7.50;99.90;;;;;;4994173;28;20177;-68
2022/04/12 06:57:07;;;;;;;6.75;5.03;;;7.60;99.90;;;;;;4994100;28;20057;-68
2022/04/12 06:59:34;;;;;;;6.20;5.22;;;7.60;99.90;;;;;;4994118;28;20046;-69
2022/04/12 07:02:01;;;;;;;7.35;4.63;;;8.10;99.90;;;;;;4994659;28;20058;-68
2022/04/12 07:04:27;;;;;;;8.35;5.10;;;7.70;99.90;;;;;;4993752;28;20046;-68
2022/04/12 07:06:53;;;;;;;7.25;5.28;;;7.70;99.90;;;;;;4994739;28;20129;-69
2022/04/12 07:09:20;;;;;;;7.75;5.43;;;7.90;99.90;;;;;;4994137;28;20524;-68
2022/04/12 07:11:52;;;;;;;8.27;5.68;;;7.80;99.90;;;;;;4992652;28;20054;-69
2022/04/12 07:14:18;;;;;;;8.23;5.22;;;7.90;99.90;;;;;;4993869;28;20054;-68
2022/04/12 07:16:43;;;;;;;9.05;5.32;;;8.00;99.90;;;;;;4994362;28;20429;-68
2022/04/12 07:19:09;;;;;;;8.02;5.25;;;8.00;99.90;;;;;;4992909;28;20125;-69
2022/04/12 07:21:35;;;;;;;8.13;5.28;;;8.10;99.90;;;;;;4994205;28;20050;-70
2022/04/12 07:24:03;;;;;;;9.30;5.40;;;8.10;99.90;;;;;;4992733;28;20494;-69
2022/04/12 07:26:30;;;;;;;7.80;5.53;;;8.20;99.90;;;;;;4993841;28;20047;-69
2022/04/12 07:28:56;;;;;;;8.35;4.95;;;8.20;99.90;;;;;;4976704;28;20055;-69
2022/04/12 07:31:21;;;;;;;11.13;5.65;;;8.30;99.90;;;;;;4976771;28;20050;-69
2022/04/12 07:33:47;;;;;;;9.20;5.40;;;8.30;99.90;;;;;;4994734;28;20042;-69
2022/04/12 07:36:14;;;;;;;7.43;5.20;;;8.30;99.90;;;;;;4993860;28;20042;-68
2022/04/12 07:38:41;;;;;;;9.43;5.50;;;8.30;99.90;;;;;;4993779;28;20057;-71
2022/04/12 07:41:07;;;;;;;6.90;5.07;;;8.30;99.90;;;;;;4993876;28;20077;-70
2022/04/12 07:43:33;;;;;;;9.07;5.50;;;8.40;99.90;;;;;;4962779;28;20050;-70
2022/04/12 07:45:58;;;;;;;8.88;5.07;;;8.40;99.90;;;;;;4996114;28;20057;-70
2022/04/12 07:48:24;;;;;;;8.90;5.90;;;8.40;99.90;;;;;;4995718;28;20060;-69
2022/04/12 07:50:50;;;;;;;8.30;5.43;;;8.50;99.90;;;;;;4996909;28;20052;-69
2022/04/12 07:53:16;;;;;;;8.48;5.22;;;8.50;99.90;;;;;;4997268;28;20055;-69
2022/04/12 07:55:41;;;;;;;8.90;5.03;;;8.60;99.90;;;;;;4997078;28;20042;-69
2022/04/12 07:58:07;;;;;;;7.75;4.95;;;8.70;99.90;;;;;;4997980;28;20044;-68
2022/04/12 08:00:33;;;;;;;7.80;5.72;;;8.70;99.90;;;;;;4996428;28;20410;-69
2022/04/12 08:02:58;;;;;;;9.02;5.95;;;8.80;99.90;;;;;;4997039;28;20504;-69
2022/04/12 08:05:24;;;;;;;7.35;5.32;;;8.80;99.90;;;;;;4997067;28;20046;-69
2022/04/12 08:07:50;;;;;;;9.00;5.68;;;8.90;99.90;;;;;;4996889;28;20490;-68
2022/04/12 08:10:17;;;;;;;6.63;4.97;;;9.00;99.90;;;;;;4995826;28;20093;-69
2022/04/12 08:12:45;;;;;;;7.22;5.22;;;9.10;99.90;;;;;;4997117;28;20050;-69
2022/04/12 08:15:12;;;;;;;8.13;5.00;;;9.10;99.90;;;;;;4996934;28;20101;-68
2022/04/12 08:17:38;;;;;;;9.10;5.68;;;9.20;99.90;;;;;;4997141;28;20046;-68
2022/04/12 08:20:05;;;;;;;7.88;5.38;;;9.30;99.90;;;;;;4996844;28;20062;-69
2022/04/12 08:22:32;;;;;;;7.30;5.50;;;9.30;99.90;;;;;;4996612;28;20058;-69
2022/04/12 08:24:59;;;;;;;8.25;5.55;;;9.40;99.90;;;;;;4996697;28;20050;-68
2022/04/12 08:27:25;;;;;;;7.20;5.25;;;9.50;99.90;;;;;;4995620;28;20441;-68
2022/04/12 08:29:51;;;;;;;10.18;5.93;;;9.60;99.90;;;;;;4995986;28;20052;-68
2022/04/12 08:32:17;;;;;;;10.48;5.13;;;9.70;99.90;;;;;;4996500;28;20042;-68
2022/04/12 08:34:44;;;;;;;9.48;5.38;;;9.80;99.90;;;;;;4996531;28;20096;-68
2022/04/12 08:37:10;;;;;;;8.65;5.57;;;9.80;99.90;;;;;;4996387;28;20046;-67
2022/04/12 08:39:36;;;;;;;7.50;5.47;;;9.90;99.90;;;;;;4996433;28;20105;-68
2022/04/12 08:42:03;;;;;;;7.70;5.75;;;9.90;99.90;;;;;;4996272;28;20050;-67
2022/04/12 08:44:30;;;;;;;8.48;5.20;;;10.00;99.90;;;;;;4996268;28;20125;-69
2022/04/12 08:46:57;;;;;;;8.60;6.03;;;10.10;99.90;;;;;;4994920;28;20043;-68
2022/04/12 08:49:23;;;;;;;9.75;5.82;;;10.10;99.90;;;;;;4996145;28;20065;-69
2022/04/12 08:51:49;;;;;;;9.30;6.22;;;10.20;99.90;;;;;;4979273;28;20085;-68
2022/04/12 08:54:18;;;;;;;7.05;5.53;;;10.30;99.90;;;;;;4993850;28;20132;-68
2022/04/12 08:56:48;;;;;;;7.97;5.65;;;10.40;99.90;;;;;;4996075;28;20038;-68
2022/04/12 08:59:13;;;;;;;6.65;5.60;;;10.50;99.90;;;;;;4994814;28;20093;-69
2022/04/12 09:01:43;;;;;;;7.47;5.70;;;10.60;99.90;;;;;;4996802;28;20105;-68
2022/04/12 09:04:10;;;;;;;10.02;6.07;;;10.70;99.90;;;;;;4995998;28;20096;-67
2022/04/12 09:06:47;;;;;;;9.50;5.72;;;10.80;99.90;;;;;;4995802;28;20053;-68
2022/04/12 09:09:15;;;;;;;7.57;5.80;;;10.90;99.90;;;;;;4994656;28;20180;-68
2022/04/12 09:11:42;;;;;;;11.98;6.30;;;11.00;99.90;;;;;;4994586;28;20042;-69
2022/04/12 09:14:13;;;;;;;9.02;5.65;;;11.20;99.90;;;;;;4995817;28;20128;-69
2022/04/12 09:16:43;;;;;;;9.90;5.70;;;11.20;99.90;;;;;;4995317;28;20060;-68
2022/04/12 09:19:09;;;;;;;9.38;5.30;;;11.30;99.90;;;;;;4994833;28;20050;-68
2022/04/12 09:21:43;;;;;;;8.88;5.95;;;11.40;99.90;;;;;;4995417;28;20367;-69
2022/04/12 09:24:19;;;;;;;9.18;5.97;;;11.50;99.90;;;;;;4993462;28;20057;-69
2022/04/12 09:26:56;;;;;;;8.60;5.43;;;11.60;99.90;;;;;;4994873;28;20074;-69
2022/04/12 09:29:27;;;;;;;7.15;5.38;;;11.70;99.90;;;;;;4994893;28;20072;-69
2022/04/12 09:31:57;;;;;;;7.65;5.90;;;11.80;99.90;;;;;;4994432;28;20508;-69
2022/04/12 09:34:23;;;;;;;7.95;6.00;;;11.80;99.90;;;;;;4994651;28;20112;-69
2022/04/12 09:36:50;;;;;;;7.75;5.80;;;11.90;99.90;;;;;;4994302;28;20057;-69
2022/04/12 09:39:21;;;;;;;8.57;5.65;;;12.00;99.90;;;;;;4994920;28;20046;-71
2022/04/12 09:41:48;;;;;;;8.48;6.00;;;12.10;99.90;;;;;;4995524;28;20096;-69
2022/04/12 09:44:18;;;;;;;7.47;5.68;;;12.20;99.90;;;;;;4994566;28;20050;-69
2022/04/12 09:46:44;;;;;;;8.02;5.50;;;12.20;99.90;;;;;;4994854;28;20057;-68
2022/04/12 09:49:10;;;;;;;7.13;6.03;;;12.30;99.90;;;;;;4994352;28;20047;-69
2022/04/12 09:51:37;;;;;;;7.68;5.80;;;12.30;99.90;;;;;;4994479;28;20077;-69
2022/04/12 09:54:07;;;;;;;7.75;5.95;;;12.40;99.90;;;;;;4994629;28;20054;-69
2022/04/12 09:56:39;;;;;;;6.63;5.57;;;12.40;99.90;;;;;;4993994;28;20050;-70
2022/04/12 09:59:09;;;;;;;8.93;5.78;;;12.40;99.90;;;;;;4992616;28;20042;-69
2022/04/12 10:01:39;;;;;;;8.50;5.88;;;12.50;99.90;;;;;;4994360;28;20053;-69
2022/04/12 10:04:09;;;;;;;8.68;5.57;;;12.60;99.90;;;;;;4994791;28;20192;-68
2022/04/12 10:06:40;;;;;;;9.23;6.03;;;12.70;99.90;;;;;;4994481;28;20536;-70
2022/04/12 10:09:09;;;;;;;12.35;5.82;;;12.70;99.90;;;;;;4994098;28;20049;-70
2022/04/12 10:11:36;;;;;;;7.88;5.70;;;12.80;99.90;;;;;;4993731;28;20466;-69
2022/04/12 10:14:01;;;;;;;8.00;5.93;;;12.80;99.90;;;;;;4994132;28;20112;-69
2022/04/12 10:16:28;;;;;;;7.85;5.60;;;12.90;99.90;;;;;;4976935;28;20050;-69
2022/04/12 10:18:54;;;;;;;8.10;6.00;;;13.00;99.90;;;;;;4993882;28;20050;-69
2022/04/12 10:21:22;;;;;;;8.63;5.78;;;13.00;99.90;;;;;;4993541;28;20046;-70
2022/04/12 10:23:54;;;;;;;10.65;5.38;;;13.10;99.90;;;;;;4994402;28;20054;-70
2022/04/12 10:26:22;;;;;;;10.82;5.25;;;13.10;99.90;;;;;;4992945;28;20137;-70
2022/04/12 10:29:00;;;;;;;9.73;6.00;;;13.20;99.90;;;;;;4994391;28;20050;-70
2022/04/12 10:31:30;;;;;;;7.68;5.93;;;13.30;99.90;;;;;;4993878;28;20046;-70
2022/04/12 10:34:16;;;;;;;22.38;8.85;;;13.40;99.90;;;;;;4993517;28;20093;-71
2022/04/12 10:37:06;;;;;;;10.20;6.35;;;13.50;99.90;;;;;;4991653;28;20141;-71
2022/04/12 10:39:49;;;;;;;9.63;6.50;;;13.60;99.90;;;;;;4992825;28;20451;-71
2022/04/12 10:42:20;;;;;;;8.80;6.32;;;13.60;99.90;;;;;;4994164;28;20046;-70
2022/04/12 10:44:57;;;;;;;9.20;6.40;;;13.70;99.90;;;;;;4993550;28;20463;-72
2022/04/12 10:47:27;;;;;;;8.07;6.13;;;13.80;99.90;;;;;;4993685;28;20050;-70
2022/04/12 10:49:59;;;;;;;14.65;6.80;;;13.90;99.90;;;;;;4993771;28;20042;-71
2022/04/12 10:52:44;;;;;;;22.27;8.25;;;13.90;99.90;;;;;;4993421;28;20050;-71
2022/04/12 10:55:18;;;;;;;10.00;6.65;;;14.00;99.90;;;;;;4993399;28;20062;-71
2022/04/12 10:57:45;;;;;;;9.07;6.50;;;14.00;99.90;;;;;;4993431;28;20038;-71
2022/04/12 11:00:14;;;;;;;10.75;7.15;;;14.10;99.90;;;;;;4992359;28;20133;-69
2022/04/12 11:02:52;;;;;;;13.07;7.10;;;14.20;99.90;;;;;;4993756;28;20430;-70
2022/04/12 11:05:33;;;;;;;16.33;7.35;;;14.20;99.90;;;;;;4992501;28;20125;-71
2022/04/12 11:08:18;;;;;;;8.15;6.32;;;14.30;99.90;;;;;;4993444;28;20035;-69
2022/04/12 11:10:50;;;;;;;9.48;6.63;;;14.30;99.90;;;;;;4993087;28;20082;-71
2022/04/12 11:13:20;;;;;;;9.05;6.13;;;14.40;99.90;;;;;;4993742;28;20475;-72
2022/04/12 11:15:54;;;;;;;12.55;7.22;;;14.40;99.90;;;;;;4993249;28;20513;-70
2022/04/12 11:18:20;;;;;;;12.48;7.25;;;14.50;99.90;;;;;;4995239;28;20038;-72
2022/04/12 11:21:00;;;;;;;8.88;6.65;;;14.60;99.90;;;;;;4997793;28;20058;-73
2022/04/12 11:23:48;;;;;;;11.05;6.32;;;14.70;99.90;;;;;;4996575;28;20058;-73
2022/04/12 11:26:40;;;;;;;10.00;6.80;;;14.80;99.90;;;;;;4997103;28;20046;-75
2022/04/12 11:29:12;;;;;;;7.82;5.88;;;14.90;99.90;;;;;;4998293;28;20047;-75
2022/04/12 11:31:47;;;;;;;8.07;6.57;;;15.00;99.90;;;;;;4980774;28;20062;-76
2022/04/12 11:34:14;;;;;;;9.80;6.68;;;15.00;99.90;;;;;;4997282;28;20565;-77
2022/04/12 11:37:04;;;;;;;11.80;7.95;;;15.00;99.80;;;;;;4996637;28;20402;-76
2022/04/12 11:39:31;;;;;;;9.23;7.22;;;15.10;99.90;;;;;;4989340;28;20098;-77
2022/04/12 11:42:00;;;;;;;8.48;6.15;;;15.10;99.90;;;;;;4998106;28;20050;-78
2022/04/12 11:44:26;;;;;;;9.13;6.35;;;15.10;99.40;;;;;;4997427;28;20049;-75
2022/04/12 11:46:56;;;;;;;8.80;6.35;;;15.20;99.50;;;;;;4997339;28;20046;-77
2022/04/12 11:49:30;;;;;;;9.07;6.30;;;15.30;99.20;;;;;;4997280;28;20054;-76
2022/04/12 11:52:01;;;;;;;8.75;6.57;;;15.30;98.80;;;;;;4997297;28;20049;-82
2022/04/12 11:54:29;;;;;;;8.80;6.57;;;15.30;98.90;;;;;;4997328;28;20164;-77
2022/04/12 11:57:20;;;;;;;8.57;6.22;;;15.40;99.00;;;;;;4997227;28;20057;-79
2022/04/12 11:59:48;;;;;;;10.57;6.85;;;15.50;99.20;;;;;;4997209;28;20057;-78
2022/04/12 12:02:22;;;;;;;9.10;6.32;;;15.60;98.90;;;;;;4997094;28;20537;-79
2022/04/12 12:05:02;;;;;;;7.70;6.25;;;15.60;98.40;;;;;;4997948;28;20054;-77
2022/04/12 12:07:28;;;;;;;8.98;6.70;;;15.80;98.20;;;;;;4996671;28;20399;-77
2022/04/12 12:10:11;;;;;;;9.40;7.10;;;15.80;98.10;;;;;;4996987;28;20042;-75
2022/04/12 12:12:47;;;;;;;11.45;7.20;;;15.80;97.90;;;;;;4997439;28;20129;-74
2022/04/12 12:15:15;;;;;;;11.23;7.43;;;15.80;97.90;;;;;;4997730;28;20050;-75
2022/04/12 12:17:44;;;;;;;10.10;6.85;;;15.80;97.90;;;;;;4995824;28;20085;-74
2022/04/12 12:20:10;;;;;;;8.52;6.68;;;15.80;98.10;;;;;;4995735;28;20086;-75
2022/04/12 12:22:37;;;;;;;10.63;7.82;;;15.80;98.20;;;;;;4996449;28;20058;-74
2022/04/12 12:25:05;;;;;;;9.13;7.05;;;15.80;98.50;;;;;;4997477;28;20057;-74
2022/04/12 12:27:38;;;;;;;11.07;6.35;;;15.80;98.50;;;;;;4996517;28;20034;-75
2022/04/12 12:30:07;;;;;;;9.95;6.13;;;15.90;98.90;;;;;;4996258;28;20057;-75
2022/04/12 12:32:35;;;;;;;8.63;5.95;;;15.90;98.70;;;;;;4996489;28;20054;-75
2022/04/12 12:35:05;;;;;;;8.90;5.82;;;16.00;98.50;;;;;;4995516;28;20050;-75
2022/04/12 12:37:31;;;;;;;9.13;6.40;;;16.10;98.60;;;;;;4996509;28;20050;-75
2022/04/12 12:39:57;;;;;;;10.32;6.70;;;16.10;97.80;;;;;;4995462;28;20105;-75
2022/04/12 12:42:23;;;;;;;8.98;6.07;;;16.20;96.90;;;;;;4996887;28;20376;-75
2022/04/12 12:44:49;;;;;;;9.68;5.70;;;16.30;96.40;;;;;;4996217;28;20062;-75
2022/04/12 12:47:15;;;;;;;9.13;5.95;;;16.30;96.40;;;;;;4995983;28;20207;-75
2022/04/12 12:49:42;;;;;;;7.53;5.75;;;16.40;96.00;;;;;;4995863;28;20046;-75
2022/04/12 12:52:14;;;;;;;8.07;5.43;;;16.40;96.10;;;;;;4996226;28;20051;-75
2022/04/12 12:54:40;;;;;;;8.63;6.03;;;16.50;95.50;;;;;;4996229;28;20046;-76
2022/04/12 12:57:09;;;;;;;9.38;5.68;;;16.60;95.30;;;;;;4995090;28;20125;-75
2022/04/12 12:59:36;;;;;;;9.70;6.20;;;16.70;95.40;;;;;;4996587;28;20054;-75